LCGO2: Spring Creek Locust Grove, OK

Data processed at Thu May 17 2018 23:54


All information presented herein is the property of the government of the United States of America and may be revised or deleted at any time without prior notice.
Dissemination of this information without the expressed written consent of the Public Affairs Office, Tulsa District U.S. Army Corps of Engineers is strictly prohibited.
These data are gathered electronically and, as presented, have not undergone any form of quality control. These data are not guaranteed to be valid or correct.
Go to home page.
Go to station list.


Previous Day
Next Day
Current Day


    
SHEF ID:       LCGO2     Spring Creek at Locust Grove
STATION TYPE:  

               PRECIP     STAGE  RIV-FLOW   VOLTAGE  BAT-LOAD
                   in        ft       cfs      volt      volt
              Ccp-Rev   Ccp-Rev   Ccp-Rev   Ccp-Rev   Ccp-Rev
(US/Central)
05/15 00:00      0.00     13.04       143     12.73     12.65
05/15 01:00      0.00     13.04       143     12.65     12.65
05/15 02:00      0.25     12.97       135     12.65     12.57
05/15 03:00      0.50     13.06       145     12.65     12.57
05/15 04:00      0.03     13.06       145     12.65     12.57
05/15 05:00      0.03     13.05       144     12.65     12.57
05/15 06:00      0.00     13.07       146     12.65     12.57
05/15 07:00      0.00     13.07       146     12.65     12.57
05/15 08:00      0.00     13.06       145     12.81     12.65
05/15 09:00      0.00     13.06       145     13.44     13.29
05/15 10:00      0.00     13.06       145     13.37     13.44
05/15 11:00      0.00     13.05       144     13.37     13.29
05/15 12:00      0.00     13.04       143     13.68     13.68
05/15 13:00      0.00     13.04       143     13.68     13.76
05/15 14:00      0.00     13.01       139     13.60     13.53
05/15 15:00      0.00     13.03       142     13.53     14.00
05/15 16:00      0.00     13.03       142     13.29     13.05
05/15 17:00      0.00     13.02       140     13.44     13.05
05/15 18:00      0.00     13.02       140     13.53     12.97
05/15 19:00      0.00     13.02       140     13.29     12.97
05/15 20:00      0.00     13.02       140     13.05     12.97
05/15 21:00      0.00     13.02       140     12.81     12.81
05/15 22:00      0.00     13.02       140     12.73     12.65
05/15 23:00      0.00     13.02       140     12.73     12.65